Time;durP1;ratioP1;P1;durP2;ratioP2;P2;SDS_P1;SDS_P2;PMS_P1;PMS_P2;Temp;Humidity;BMP_temperature;BMP_pressure;BME280_temperature;BME280_humidity;BME280_pressure;Samples;Min_cycle;Max_cycle;Signal;HPM_P1;HPM_P2
2022/01/28 00:02:40;;;;;;;6.50;3.38;;;5.20;99.90;;;;;;5051597;28;20211;-73
2022/01/28 00:05:16;;;;;;;3.15;2.15;;;5.20;99.90;;;;;;5052138;28;20188;-72
2022/01/28 00:07:45;;;;;;;5.30;3.50;;;5.20;99.90;;;;;;5052802;28;20223;-71
2022/01/28 00:10:13;;;;;;;4.00;2.08;;;5.20;99.90;;;;;;5047680;28;20262;-72
2022/01/28 00:13:01;;;;;;;4.10;2.65;;;5.20;99.90;;;;;;5050725;28;20224;-71
2022/01/28 00:15:34;;;;;;;5.38;2.67;;;5.20;99.90;;;;;;5050749;28;20266;-72
2022/01/28 00:38:01;;;;;;;5.10;2.30;;;5.20;99.90;;;;;;5013216;28;20248;-73
2022/01/28 00:40:31;;;;;;;3.55;2.28;;;5.20;99.90;;;;;;5035354;28;20217;-72
2022/01/28 00:42:59;;;;;;;4.00;2.65;;;5.20;99.90;;;;;;5049920;28;20248;-72
2022/01/28 00:45:27;;;;;;;3.58;2.28;;;5.20;99.90;;;;;;5050518;28;20181;-71
2022/01/28 00:47:55;;;;;;;5.05;2.50;;;5.20;99.90;;;;;;5043551;28;20279;-71
2022/01/28 00:50:24;;;;;;;2.58;2.10;;;5.20;99.90;;;;;;5050450;28;20188;-72
2022/01/28 00:52:53;;;;;;;5.63;2.78;;;5.20;99.90;;;;;;5050109;28;20221;-71
2022/01/28 00:55:22;;;;;;;6.60;2.78;;;5.20;99.90;;;;;;5050329;28;20188;-71
2022/01/28 00:57:50;;;;;;;4.53;2.40;;;5.20;99.90;;;;;;5050436;28;20627;-72
2022/01/28 01:00:18;;;;;;;2.17;1.70;;;5.20;99.90;;;;;;5050465;28;20283;-72
2022/01/28 01:02:47;;;;;;;3.58;2.70;;;5.20;99.90;;;;;;5042999;28;20213;-71
2022/01/28 01:05:15;;;;;;;3.90;2.00;;;5.20;99.90;;;;;;5049266;28;20200;-72
2022/01/28 01:07:43;;;;;;;2.90;2.60;;;5.20;99.90;;;;;;5046674;28;20212;-72
2022/01/28 01:10:13;;;;;;;3.67;2.40;;;5.20;99.90;;;;;;5050751;28;20243;-72
2022/01/28 01:12:44;;;;;;;2.17;1.85;;;5.20;99.90;;;;;;5049960;28;20785;-72
2022/01/28 01:15:18;;;;;;;5.80;2.63;;;5.20;99.90;;;;;;5050376;28;20189;-72
2022/01/28 01:17:56;;;;;;;4.18;2.10;;;5.20;99.90;;;;;;5049886;28;20224;-72
2022/01/28 01:20:53;;;;;;;3.10;2.08;;;5.20;99.90;;;;;;5050622;28;20219;-72
2022/01/28 01:23:27;;;;;;;3.13;2.10;;;5.20;99.90;;;;;;5049115;28;20220;-71
2022/01/28 01:26:06;;;;;;;2.78;1.90;;;5.20;99.90;;;;;;5050388;28;20232;-72
2022/01/28 01:28:37;;;;;;;5.18;2.53;;;5.20;99.90;;;;;;5049667;28;20648;-72
2022/01/28 01:31:09;;;;;;;3.33;2.25;;;5.20;99.90;;;;;;5050351;28;20304;-72
2022/01/28 01:33:42;;;;;;;5.22;2.30;;;5.20;99.90;;;;;;5030716;28;20236;-71
2022/01/28 01:36:10;;;;;;;2.45;2.25;;;5.20;99.90;;;;;;5048895;28;20196;-71
2022/01/28 01:38:40;;;;;;;4.50;2.58;;;5.20;99.90;;;;;;5049467;28;20230;-72
2022/01/28 01:41:14;;;;;;;4.22;2.47;;;5.20;99.90;;;;;;5050265;28;20189;-72
2022/01/28 01:43:52;;;;;;;5.88;2.53;;;5.20;99.90;;;;;;5049552;28;20247;-72
2022/01/28 01:46:28;;;;;;;3.05;2.33;;;5.20;99.90;;;;;;5048786;28;20307;-71
2022/01/28 01:54:27;;;;;;;4.45;1.70;;;5.20;99.90;;;;;;5026557;28;20192;-72
2022/01/28 01:56:57;;;;;;;3.60;1.70;;;5.20;99.90;;;;;;5043757;28;20728;-72
2022/01/28 01:59:25;;;;;;;3.47;2.00;;;5.20;99.90;;;;;;5029959;28;20280;-72
2022/01/28 02:01:53;;;;;;;4.10;2.13;;;5.20;99.90;;;;;;5035084;28;20221;-71
2022/01/28 02:04:21;;;;;;;2.80;2.28;;;5.20;99.90;;;;;;5021488;28;20316;-72
2022/01/28 02:06:51;;;;;;;4.22;1.92;;;5.20;99.90;;;;;;5029827;28;20221;-72
2022/01/28 02:09:19;;;;;;;3.53;1.98;;;5.20;99.90;;;;;;5029803;28;20213;-72
2022/01/28 02:11:47;;;;;;;3.78;2.10;;;5.20;99.90;;;;;;5040962;28;20662;-72
2022/01/28 02:14:17;;;;;;;2.95;1.90;;;5.20;99.90;;;;;;5051809;28;20223;-71
2022/01/28 02:16:45;;;;;;;3.50;2.20;;;5.20;99.90;;;;;;5052861;28;21271;-73
2022/01/28 02:19:13;;;;;;;6.70;1.90;;;5.20;99.90;;;;;;5053881;28;20298;-72
2022/01/28 02:21:46;;;;;;;3.10;1.90;;;5.20;99.90;;;;;;5052749;28;20208;-72
2022/01/28 02:24:18;;;;;;;2.63;1.83;;;5.20;99.90;;;;;;5052986;28;20239;-72
2022/01/28 02:26:46;;;;;;;4.10;2.30;;;5.20;99.90;;;;;;5053175;28;20240;-73
2022/01/28 02:29:25;;;;;;;5.60;2.22;;;5.20;99.90;;;;;;5053284;28;20246;-72
2022/01/28 02:31:54;;;;;;;7.22;3.25;;;5.20;99.90;;;;;;5051242;28;20640;-71
2022/01/28 02:34:22;;;;;;;4.18;2.17;;;5.20;99.90;;;;;;5033017;28;20679;-71
2022/01/28 02:36:51;;;;;;;6.15;2.03;;;5.30;99.90;;;;;;5045370;28;20220;-72
2022/01/28 02:39:19;;;;;;;2.40;1.60;;;5.20;99.90;;;;;;5052767;28;20220;-71
2022/01/28 02:41:51;;;;;;;3.92;1.90;;;5.30;99.90;;;;;;5043965;28;20565;-72
2022/01/28 02:44:24;;;;;;;2.90;1.75;;;5.20;99.90;;;;;;5034333;28;20730;-72
2022/01/28 02:47:01;;;;;;;3.05;1.90;;;5.30;99.90;;;;;;5052216;28;20220;-72
2022/01/28 02:49:35;;;;;;;4.75;2.70;;;5.30;99.90;;;;;;5034932;28;20212;-73
2022/01/28 02:52:07;;;;;;;3.60;1.65;;;5.20;99.90;;;;;;5051294;28;20269;-72
2022/01/28 02:54:45;;;;;;;3.80;1.90;;;5.30;99.90;;;;;;5034406;28;20197;-72
2022/01/28 02:57:17;;;;;;;7.75;2.30;;;5.20;99.90;;;;;;5052710;28;20224;-72
2022/01/28 02:59:45;;;;;;;3.90;2.17;;;5.20;99.90;;;;;;5052309;28;20218;-72
2022/01/28 03:02:13;;;;;;;2.80;1.80;;;5.20;99.90;;;;;;5052221;28;20302;-74
2022/01/28 03:05:03;;;;;;;4.15;1.88;;;5.30;99.90;;;;;;5052092;28;20708;-72
2022/01/28 03:07:33;;;;;;;5.88;1.95;;;5.30;99.90;;;;;;5051791;28;20224;-71
2022/01/28 03:10:27;;;;;;;2.58;1.50;;;5.30;99.90;;;;;;5052608;28;20188;-71
2022/01/28 03:13:14;;;;;;;2.60;1.45;;;5.30;99.90;;;;;;5052044;28;20323;-72
2022/01/28 03:15:50;;;;;;;3.80;1.40;;;5.20;99.90;;;;;;5052359;28;20199;-72
2022/01/28 03:18:21;;;;;;;2.80;1.75;;;5.20;99.90;;;;;;5033052;28;20229;-72
2022/01/28 03:21:00;;;;;;;4.50;1.65;;;5.30;99.90;;;;;;5032273;28;20185;-72
2022/01/28 03:23:32;;;;;;;2.28;1.60;;;5.30;99.90;;;;;;5050739;28;20361;-73
2022/01/28 03:26:00;;;;;;;5.72;1.95;;;5.20;99.90;;;;;;5051780;28;20192;-72
2022/01/28 03:28:28;;;;;;;3.85;2.00;;;5.20;99.90;;;;;;5051684;28;20251;-71
2022/01/28 03:30:56;;;;;;;3.05;1.60;;;5.30;99.90;;;;;;5051943;28;20196;-71
2022/01/28 03:33:24;;;;;;;3.53;1.73;;;5.20;99.90;;;;;;5051801;28;20224;-72
2022/01/28 03:35:52;;;;;;;6.28;2.20;;;5.20;99.90;;;;;;5051886;28;20554;-72
2022/01/28 03:38:20;;;;;;;2.88;1.70;;;5.30;99.90;;;;;;5051429;28;20285;-72
2022/01/28 03:40:52;;;;;;;8.00;2.00;;;5.20;99.90;;;;;;5052029;28;20196;-72
2022/01/28 03:43:20;;;;;;;2.30;1.85;;;5.30;99.90;;;;;;5050944;28;20669;-72
2022/01/28 03:45:48;;;;;;;3.15;2.13;;;5.30;99.90;;;;;;5051342;28;20279;-71
2022/01/28 03:48:16;;;;;;;4.93;1.92;;;5.20;99.90;;;;;;5051171;28;20228;-71
2022/01/28 03:50:44;;;;;;;4.75;1.95;;;5.30;99.90;;;;;;5051721;28;20184;-72
2022/01/28 03:53:12;;;;;;;3.05;1.70;;;5.30;99.90;;;;;;5051150;28;20286;-72
2022/01/28 03:55:40;;;;;;;2.95;1.60;;;5.30;99.90;;;;;;5051069;28;20227;-72
2022/01/28 03:58:09;;;;;;;3.67;1.95;;;5.20;99.90;;;;;;5050773;28;20282;-71
2022/01/28 04:00:37;;;;;;;3.35;1.42;;;5.20;99.90;;;;;;5051539;28;20723;-72
2022/01/28 04:03:10;;;;;;;3.42;1.80;;;5.30;99.90;;;;;;5048279;28;20224;-72
2022/01/28 04:11:33;;;;;;;3.05;1.25;;;5.30;99.90;;;;;;4954067;28;20206;-72
2022/01/28 04:14:11;;;;;;;2.80;1.65;;;5.30;99.90;;;;;;4969349;28;20187;-72
2022/01/28 04:19:21;;;;;;;6.13;1.90;;;5.20;99.90;;;;;;5034027;28;20254;-72
2022/01/28 04:21:49;;;;;;;4.05;1.80;;;5.20;99.90;;;;;;5050574;28;20252;-71
2022/01/28 04:24:18;;;;;;;3.08;1.75;;;5.20;99.90;;;;;;5050761;28;20769;-73
2022/01/28 04:26:46;;;;;;;4.10;1.88;;;5.30;99.90;;;;;;5029132;28;20185;-71
2022/01/28 04:29:15;;;;;;;2.17;1.45;;;5.20;99.90;;;;;;5031132;28;20213;-72
2022/01/28 04:31:46;;;;;;;5.07;2.10;;;5.20;99.90;;;;;;5044427;28;20220;-71
2022/01/28 04:34:15;;;;;;;4.05;1.60;;;5.20;99.90;;;;;;5050882;28;20615;-72
2022/01/28 04:36:52;;;;;;;3.35;1.85;;;5.20;99.90;;;;;;5049564;28;20677;-71
2022/01/28 04:39:28;;;;;;;3.35;1.63;;;5.20;99.90;;;;;;5050755;28;20212;-72
2022/01/28 04:42:04;;;;;;;1.80;1.55;;;5.20;99.90;;;;;;5050434;28;20223;-72
2022/01/28 04:44:42;;;;;;;2.70;1.65;;;5.20;99.90;;;;;;5050484;28;20304;-71
2022/01/28 04:47:17;;;;;;;3.63;1.75;;;5.20;99.90;;;;;;5052199;28;20219;-73
2022/01/28 04:49:56;;;;;;;2.50;2.00;;;5.20;99.90;;;;;;5060072;28;20846;-71
2022/01/28 04:52:46;;;;;;;3.80;1.70;;;5.20;99.90;;;;;;5016890;28;20220;-72
2022/01/28 04:55:27;;;;;;;3.05;1.80;;;5.20;99.90;;;;;;5034549;28;20228;-71
2022/01/28 04:58:09;;;;;;;2.95;1.42;;;5.30;99.90;;;;;;5049869;28;20772;-72
2022/01/28 05:00:49;;;;;;;1.75;1.65;;;5.20;99.90;;;;;;5050010;28;20238;-72
2022/01/28 05:03:33;;;;;;;2.97;1.63;;;5.20;99.90;;;;;;5027289;28;20266;-72
2022/01/28 05:09:28;;;;;;;3.58;1.83;;;5.20;99.90;;;;;;5048110;28;20791;-72
2022/01/28 05:15:09;;;;;;;4.13;1.73;;;5.20;99.90;;;;;;5050228;28;20678;-71
2022/01/28 05:23:30;;;;;;;3.67;1.17;;;5.20;99.90;;;;;;5049742;28;20251;-71
2022/01/28 05:26:24;;;;;;;3.85;1.58;;;5.20;99.90;;;;;;5049773;28;20212;-72
2022/01/28 05:28:53;;;;;;;4.65;2.10;;;5.20;99.90;;;;;;5030124;28;20248;-73
2022/01/28 05:31:21;;;;;;;5.45;1.80;;;5.20;99.90;;;;;;5037309;28;20196;-72
2022/01/28 05:33:50;;;;;;;4.70;1.95;;;5.20;99.90;;;;;;5049794;28;20690;-72
2022/01/28 05:36:18;;;;;;;1.88;1.60;;;5.20;99.90;;;;;;5050056;28;20212;-73
2022/01/28 05:38:47;;;;;;;9.75;1.98;;;5.20;99.90;;;;;;5049236;28;20220;-71
2022/01/28 05:41:15;;;;;;;2.58;1.20;;;5.20;99.90;;;;;;5047452;28;21353;-72
2022/01/28 05:43:43;;;;;;;1.83;1.30;;;5.20;99.90;;;;;;5049442;28;20224;-72
2022/01/28 05:46:11;;;;;;;1.88;1.50;;;5.20;99.90;;;;;;5049986;28;20220;-71
2022/01/28 05:48:39;;;;;;;2.22;1.95;;;5.20;99.90;;;;;;5042888;28;20271;-72
2022/01/28 05:51:08;;;;;;;3.70;1.50;;;5.20;99.90;;;;;;5043944;28;20213;-72
2022/01/28 05:53:39;;;;;;;4.63;4.07;;;5.30;99.90;;;;;;5033740;28;20244;-73
2022/01/28 05:56:07;;;;;;;2.95;2.22;;;5.20;99.90;;;;;;5051441;28;20216;-71
2022/01/28 05:58:35;;;;;;;2.50;2.05;;;5.20;99.90;;;;;;5033351;28;20283;-72
2022/01/28 06:01:03;;;;;;;3.40;1.80;;;5.20;99.90;;;;;;5033851;28;20240;-72
2022/01/28 06:03:32;;;;;;;4.85;2.30;;;5.20;99.90;;;;;;5046978;28;20216;-72
2022/01/28 06:06:00;;;;;;;3.45;1.40;;;5.20;99.90;;;;;;5053581;28;20219;-71
2022/01/28 06:08:29;;;;;;;2.65;1.20;;;5.20;99.90;;;;;;5053072;28;20224;-68
2022/01/28 06:10:57;;;;;;;3.50;1.73;;;5.20;99.90;;;;;;5051724;28;20184;-68
2022/01/28 06:13:25;;;;;;;3.00;1.58;;;5.20;99.90;;;;;;5052942;28;20248;-67
2022/01/28 06:15:55;;;;;;;3.30;1.75;;;5.20;99.90;;;;;;5050077;28;20677;-67
2022/01/28 06:18:23;;;;;;;1.70;1.27;;;5.20;99.90;;;;;;5053038;28;20220;-67
2022/01/28 06:20:52;;;;;;;6.38;1.38;;;5.20;99.90;;;;;;5053599;28;20219;-67
2022/01/28 06:23:20;;;;;;;5.13;1.40;;;5.20;99.90;;;;;;5034551;28;20247;-68
2022/01/28 06:25:50;;;;;;;3.65;2.17;;;5.20;99.90;;;;;;5052326;28;20756;-69
2022/01/28 06:28:18;;;;;;;2.67;1.30;;;5.20;99.90;;;;;;5040299;28;20262;-67
2022/01/28 06:30:46;;;;;;;3.35;1.65;;;5.20;99.90;;;;;;5053014;28;20277;-67
2022/01/28 06:33:16;;;;;;;2.88;1.58;;;5.20;99.90;;;;;;5052675;28;20212;-65
2022/01/28 06:35:45;;;;;;;6.07;1.60;;;5.20;99.90;;;;;;5052962;28;20216;-67
2022/01/28 06:38:14;;;;;;;3.35;1.70;;;5.30;99.90;;;;;;5052346;28;20685;-68
2022/01/28 06:40:42;;;;;;;1.85;1.50;;;5.20;99.90;;;;;;5053064;28;20569;-68
2022/01/28 06:43:13;;;;;;;2.78;1.50;;;5.20;99.90;;;;;;5052737;28;20216;-66
2022/01/28 06:45:42;;;;;;;1.75;1.35;;;5.20;99.90;;;;;;5052396;28;20228;-67
2022/01/28 06:48:11;;;;;;;2.92;1.45;;;5.20;99.90;;;;;;5051000;28;20312;-68
2022/01/28 06:50:41;;;;;;;5.50;1.98;;;5.20;99.90;;;;;;5052981;28;20849;-66
2022/01/28 06:53:10;;;;;;;2.22;1.65;;;5.20;99.90;;;;;;5052528;28;20228;-67
2022/01/28 06:55:39;;;;;;;2.38;1.73;;;5.20;99.90;;;;;;5052550;28;20215;-67
2022/01/28 06:58:08;;;;;;;2.88;1.65;;;5.20;99.90;;;;;;5051951;28;20266;-67
2022/01/28 07:00:40;;;;;;;3.38;1.90;;;5.20;99.90;;;;;;5051811;28;20228;-67
2022/01/28 07:03:09;;;;;;;3.33;1.38;;;5.20;99.90;;;;;;5052062;28;20212;-67
2022/01/28 07:05:39;;;;;;;2.30;1.73;;;5.20;99.90;;;;;;5052015;28;20574;-67
2022/01/28 07:08:07;;;;;;;2.67;1.77;;;5.20;99.90;;;;;;5051811;28;20315;-66
2022/01/28 07:10:36;;;;;;;2.75;2.08;;;5.20;99.90;;;;;;5052677;28;20188;-67
2022/01/28 07:13:04;;;;;;;2.95;1.50;;;5.20;99.90;;;;;;5051800;28;20216;-67
2022/01/28 07:15:32;;;;;;;1.65;1.38;;;5.20;99.90;;;;;;5052424;28;20211;-67
2022/01/28 07:18:04;;;;;;;3.17;1.70;;;5.20;99.90;;;;;;5051652;28;20247;-67
2022/01/28 07:20:34;;;;;;;5.28;2.47;;;5.20;99.90;;;;;;5052264;28;20193;-66
2022/01/28 07:23:03;;;;;;;5.88;2.00;;;5.20;99.90;;;;;;5038394;28;20239;-66
2022/01/28 07:25:32;;;;;;;5.35;1.95;;;5.20;99.90;;;;;;5050954;28;20235;-66
2022/01/28 07:28:00;;;;;;;5.30;2.40;;;5.20;99.90;;;;;;5051417;28;20233;-67
2022/01/28 07:30:28;;;;;;;2.72;1.92;;;5.20;99.90;;;;;;5052315;28;20258;-68
2022/01/28 07:32:58;;;;;;;3.15;1.80;;;5.20;99.90;;;;;;5051274;28;20219;-67
2022/01/28 07:35:28;;;;;;;3.95;2.58;;;5.20;99.90;;;;;;5051967;28;20655;-67
2022/01/28 07:37:56;;;;;;;3.15;2.13;;;5.20;99.90;;;;;;5051115;28;20251;-66
2022/01/28 07:40:24;;;;;;;2.15;1.50;;;5.20;99.90;;;;;;5051875;28;20279;-67
2022/01/28 07:42:52;;;;;;;5.00;1.63;;;5.20;99.90;;;;;;5043965;28;20299;-65
2022/01/28 07:45:20;;;;;;;2.90;1.85;;;5.20;99.90;;;;;;5033441;28;20196;-68
2022/01/28 07:47:48;;;;;;;4.13;2.17;;;5.20;99.90;;;;;;5050977;28;20236;-66
2022/01/28 07:50:16;;;;;;;1.70;1.52;;;5.20;99.90;;;;;;5051372;28;20287;-66
2022/01/28 07:52:45;;;;;;;1.95;1.50;;;5.20;99.90;;;;;;5051172;28;20303;-68
2022/01/28 07:55:14;;;;;;;2.05;1.50;;;5.20;99.90;;;;;;5051468;28;20219;-66
2022/01/28 07:57:43;;;;;;;1.48;1.30;;;5.20;99.90;;;;;;5030097;28;20304;-67
2022/01/28 08:00:13;;;;;;;3.17;1.30;;;5.20;99.90;;;;;;5051632;28;20218;-66
2022/01/28 08:02:43;;;;;;;3.90;1.70;;;5.20;99.90;;;;;;5051150;28;20249;-66
2022/01/28 08:05:12;;;;;;;2.90;1.67;;;5.20;99.90;;;;;;5051331;28;20201;-67
2022/01/28 08:07:40;;;;;;;2.53;1.60;;;5.20;99.90;;;;;;5049054;28;20278;-65
2022/01/28 08:10:10;;;;;;;4.05;2.20;;;5.20;99.90;;;;;;5051001;28;20200;-67
2022/01/28 08:12:46;;;;;;;2.08;1.40;;;5.20;99.90;;;;;;5030763;28;20268;-67
2022/01/28 08:15:14;;;;;;;2.38;1.88;;;5.20;99.90;;;;;;5047106;28;20283;-67
2022/01/28 08:17:54;;;;;;;5.70;1.88;;;5.20;99.90;;;;;;5050737;28;20605;-67
2022/01/28 08:20:22;;;;;;;4.00;2.15;;;5.20;99.90;;;;;;5047565;28;20658;-67
2022/01/28 08:22:51;;;;;;;3.17;1.90;;;5.20;99.90;;;;;;5050159;28;20720;-66
2022/01/28 08:25:23;;;;;;;2.40;1.90;;;5.20;99.90;;;;;;5051280;28;20200;-67
2022/01/28 08:27:52;;;;;;;2.00;1.67;;;5.20;99.90;;;;;;5050403;28;20228;-66
2022/01/28 08:30:22;;;;;;;3.08;1.70;;;5.20;99.90;;;;;;5050929;28;20274;-66
2022/01/28 08:32:50;;;;;;;3.95;2.20;;;5.20;99.90;;;;;;5050243;28;20224;-67
2022/01/28 08:35:23;;;;;;;3.45;1.75;;;5.20;99.90;;;;;;5050295;28;20239;-68
2022/01/28 08:37:51;;;;;;;4.57;2.13;;;5.20;99.90;;;;;;5049787;28;20229;-66
2022/01/28 08:40:21;;;;;;;6.43;2.08;;;5.20;99.90;;;;;;5050810;28;20239;-66
2022/01/28 08:42:49;;;;;;;3.13;2.38;;;5.20;99.90;;;;;;5050386;28;20224;-67
2022/01/28 08:45:17;;;;;;;2.33;2.10;;;5.20;99.90;;;;;;5050144;28;20245;-67
2022/01/28 08:47:45;;;;;;;2.85;2.00;;;5.20;99.90;;;;;;5049867;28;20788;-67
2022/01/28 08:50:13;;;;;;;2.92;1.98;;;5.20;99.90;;;;;;5050243;28;20204;-69
2022/01/28 08:52:46;;;;;;;1.98;1.80;;;5.20;99.90;;;;;;5049663;28;20719;-67
2022/01/28 08:55:15;;;;;;;4.68;2.60;;;5.20;99.90;;;;;;5050413;28;20589;-67
2022/01/28 08:57:45;;;;;;;2.15;1.92;;;5.20;99.90;;;;;;5050253;28;20224;-67
2022/01/28 09:00:17;;;;;;;2.45;2.25;;;5.20;99.90;;;;;;5050439;28;20250;-69
2022/01/28 09:02:45;;;;;;;4.10;2.25;;;5.20;99.90;;;;;;5050333;28;20586;-68
2022/01/28 09:05:13;;;;;;;3.13;2.33;;;5.20;99.90;;;;;;5030670;28;20213;-68
2022/01/28 09:07:41;;;;;;;5.28;2.65;;;5.20;99.90;;;;;;5032666;28;20228;-67
2022/01/28 09:10:17;;;;;;;4.72;1.90;;;5.20;99.90;;;;;;5045289;28;20212;-67
2022/01/28 09:12:49;;;;;;;2.95;1.90;;;5.20;99.90;;;;;;5041022;28;20890;-67
2022/01/28 09:15:18;;;;;;;5.25;2.63;;;5.30;99.90;;;;;;5030206;28;20655;-67
2022/01/28 09:17:59;;;;;;;4.10;2.00;;;5.30;99.90;;;;;;5045958;28;20220;-67
2022/01/28 09:20:28;;;;;;;5.40;2.10;;;5.30;99.90;;;;;;5050459;28;20192;-68
2022/01/28 09:22:58;;;;;;;3.55;1.83;;;5.30;99.90;;;;;;5049431;28;20228;-68
2022/01/28 09:25:26;;;;;;;6.68;2.63;;;5.30;99.90;;;;;;5050509;28;20238;-68
2022/01/28 09:27:56;;;;;;;7.93;2.05;;;5.30;99.90;;;;;;5050306;28;20259;-68
2022/01/28 09:30:24;;;;;;;4.18;1.63;;;5.30;99.90;;;;;;5050366;28;20242;-67
2022/01/28 09:32:52;;;;;;;4.82;2.30;;;5.30;99.90;;;;;;5050621;28;20220;-66
2022/01/28 09:35:21;;;;;;;3.80;2.50;;;5.30;99.90;;;;;;5050072;28;20250;-66
2022/01/28 09:37:49;;;;;;;2.92;2.45;;;5.30;99.90;;;;;;5049222;28;20289;-66
2022/01/28 09:40:17;;;;;;;3.08;1.80;;;5.30;99.90;;;;;;5046564;28;20212;-65
2022/01/28 09:42:47;;;;;;;4.28;1.63;;;5.30;99.90;;;;;;5049973;28;20677;-65
2022/01/28 09:45:20;;;;;;;3.60;2.00;;;5.30;99.90;;;;;;5050043;28;20317;-66
2022/01/28 09:47:51;;;;;;;2.35;2.15;;;5.30;99.90;;;;;;5046549;28;20266;-67
2022/01/28 09:50:22;;;;;;;2.95;1.80;;;5.30;99.90;;;;;;5039584;28;20611;-66
2022/01/28 09:52:50;;;;;;;2.65;2.00;;;5.30;99.90;;;;;;5049688;28;20228;-67
2022/01/28 09:55:19;;;;;;;3.70;2.40;;;5.40;99.90;;;;;;5038686;28;20247;-66
2022/01/28 09:57:51;;;;;;;2.70;2.10;;;5.30;99.90;;;;;;5049269;28;20717;-66
2022/01/28 10:00:22;;;;;;;6.50;2.78;;;5.40;99.90;;;;;;5034601;28;20193;-67
2022/01/28 10:02:53;;;;;;;5.15;2.30;;;5.40;99.90;;;;;;5037273;28;20748;-66
2022/01/28 10:05:25;;;;;;;4.97;2.45;;;5.40;99.90;;;;;;5049302;28;20211;-67
2022/01/28 10:08:05;;;;;;;5.65;2.40;;;5.40;99.90;;;;;;5048488;28;20392;-67
2022/01/28 10:10:49;;;;;;;3.50;2.63;;;5.40;99.90;;;;;;5049991;28;20197;-67
2022/01/28 10:13:21;;;;;;;5.10;2.20;;;5.40;99.90;;;;;;5045565;28;20217;-66
2022/01/28 10:15:56;;;;;;;4.05;2.20;;;5.40;99.90;;;;;;5028456;28;20221;-66
2022/01/28 10:18:54;;;;;;;3.42;2.20;;;5.40;99.90;;;;;;5042506;28;20224;-66
2022/01/28 10:21:26;;;;;;;2.42;2.20;;;5.40;99.90;;;;;;5049091;28;20224;-66
2022/01/28 10:24:14;;;;;;;3.53;2.38;;;5.40;99.90;;;;;;5031482;28;20297;-66
2022/01/28 10:26:48;;;;;;;4.80;2.40;;;5.40;99.90;;;;;;5021567;28;20246;-67
2022/01/28 10:29:18;;;;;;;3.50;2.28;;;5.40;99.90;;;;;;5050055;28;20220;-66
2022/01/28 10:31:51;;;;;;;3.17;1.95;;;5.40;99.90;;;;;;5036662;28;20593;-68
2022/01/28 10:34:29;;;;;;;3.45;2.40;;;5.40;99.90;;;;;;5043762;28;20228;-67
2022/01/28 10:37:24;;;;;;;2.42;1.80;;;5.40;99.90;;;;;;5032853;28;20216;-68
2022/01/28 10:39:58;;;;;;;2.70;2.08;;;5.40;99.90;;;;;;5051784;28;20203;-66
2022/01/28 10:42:37;;;;;;;5.35;2.67;;;5.40;99.90;;;;;;5052640;28;20232;-66
2022/01/28 10:45:10;;;;;;;6.82;2.45;;;5.40;99.90;;;;;;5052179;28;20608;-67
2022/01/28 10:47:44;;;;;;;3.53;2.85;;;5.40;99.90;;;;;;5045399;28;20224;-67
2022/01/28 10:50:18;;;;;;;2.00;1.80;;;5.40;99.90;;;;;;5053103;28;20238;-65
2022/01/28 10:52:48;;;;;;;3.22;2.47;;;5.40;99.90;;;;;;5051702;28;20293;-67
2022/01/28 10:55:18;;;;;;;3.80;2.35;;;5.40;99.90;;;;;;5052947;28;20543;-72
2022/01/28 10:57:57;;;;;;;2.90;1.90;;;5.40;99.90;;;;;;5052450;28;20217;-72
2022/01/28 11:00:28;;;;;;;3.13;2.55;;;5.40;99.90;;;;;;5052608;28;20629;-72
2022/01/28 11:02:59;;;;;;;2.47;1.80;;;5.40;99.90;;;;;;5051695;28;20258;-73
2022/01/28 11:05:29;;;;;;;4.93;2.60;;;5.40;99.90;;;;;;5052194;28;20192;-73
2022/01/28 11:07:58;;;;;;;1.70;1.55;;;5.40;99.90;;;;;;5051832;28;20817;-72
2022/01/28 11:10:26;;;;;;;2.60;2.40;;;5.40;99.90;;;;;;5039360;28;20613;-72
2022/01/28 11:12:54;;;;;;;4.97;2.50;;;5.40;99.90;;;;;;5051910;28;20303;-73
2022/01/28 11:15:22;;;;;;;2.83;2.53;;;5.40;99.90;;;;;;5052391;28;20212;-72
2022/01/28 11:17:52;;;;;;;3.67;2.33;;;5.40;99.90;;;;;;5045909;28;20259;-72
2022/01/28 11:20:24;;;;;;;4.25;2.40;;;5.40;99.90;;;;;;5049991;28;20188;-72
2022/01/28 11:23:08;;;;;;;3.95;2.40;;;5.40;99.90;;;;;;5034499;28;20729;-71
2022/01/28 11:25:57;;;;;;;2.92;1.83;;;5.40;99.90;;;;;;5045238;28;20772;-71
2022/01/28 11:28:41;;;;;;;3.17;2.05;;;5.40;99.90;;;;;;5051520;28;20244;-71
2022/01/28 11:31:10;;;;;;;3.33;2.78;;;5.40;99.90;;;;;;5051862;28;20192;-72
2022/01/28 11:33:47;;;;;;;4.35;2.20;;;5.40;99.90;;;;;;5051322;28;20221;-73
2022/01/28 11:36:32;;;;;;;2.28;1.80;;;5.40;99.90;;;;;;5046719;28;20561;-71
2022/01/28 11:39:07;;;;;;;3.05;2.15;;;5.40;99.90;;;;;;5049385;28;20220;-73
2022/01/28 11:41:36;;;;;;;3.75;2.63;;;5.40;99.90;;;;;;5051916;28;20192;-73
2022/01/28 11:44:04;;;;;;;3.40;2.03;;;5.40;99.90;;;;;;5051259;28;20272;-72
2022/01/28 11:46:38;;;;;;;2.38;2.15;;;5.40;99.90;;;;;;5050334;28;20239;-71
2022/01/28 11:49:24;;;;;;;4.53;2.42;;;5.40;99.90;;;;;;5049398;28;20227;-71
2022/01/28 11:51:54;;;;;;;5.10;2.03;;;5.40;99.90;;;;;;5049808;28;20262;-72
2022/01/28 11:54:35;;;;;;;2.83;2.58;;;5.40;99.90;;;;;;5051268;28;20200;-72
2022/01/28 11:57:17;;;;;;;8.05;2.63;;;5.40;99.90;;;;;;5050624;28;20220;-73
2022/01/28 11:59:47;;;;;;;5.00;2.47;;;5.40;99.90;;;;;;5051386;28;20243;-72
2022/01/28 12:02:17;;;;;;;3.97;2.22;;;5.40;99.90;;;;;;5051090;28;20220;-72
2022/01/28 12:04:46;;;;;;;3.17;2.05;;;5.40;99.90;;;;;;5035386;28;20201;-73
2022/01/28 12:07:25;;;;;;;4.00;2.60;;;5.40;99.90;;;;;;5050443;28;20220;-71
2022/01/28 12:09:55;;;;;;;2.53;1.92;;;5.40;99.90;;;;;;5050935;28;20192;-73
2022/01/28 12:12:56;;;;;;;3.70;2.13;;;5.40;99.90;;;;;;5050652;28;20254;-72
2022/01/28 12:15:27;;;;;;;3.78;2.30;;;5.40;99.90;;;;;;5050838;28;20188;-72
2022/01/28 12:18:06;;;;;;;3.88;2.53;;;5.40;99.90;;;;;;5058133;28;20768;-72
2022/01/28 12:20:43;;;;;;;3.45;2.20;;;5.40;99.90;;;;;;5050804;28;20184;-73
2022/01/28 12:23:27;;;;;;;2.85;2.05;;;5.40;99.90;;;;;;5049529;28;20231;-72
2022/01/28 12:26:00;;;;;;;5.82;2.38;;;5.40;99.90;;;;;;5043675;28;20189;-71
2022/01/28 12:28:48;;;;;;;3.47;2.38;;;5.40;99.90;;;;;;5054781;28;20219;-72
2022/01/28 12:31:26;;;;;;;4.20;2.30;;;5.40;99.90;;;;;;5049018;28;20192;-71
2022/01/28 12:33:56;;;;;;;2.85;2.47;;;5.40;99.90;;;;;;5049490;28;20212;-71
2022/01/28 12:36:25;;;;;;;3.88;2.25;;;5.40;99.90;;;;;;5045621;28;20189;-72
2022/01/28 12:38:59;;;;;;;3.25;2.22;;;5.40;99.90;;;;;;5048712;28;20295;-72
2022/01/28 12:41:30;;;;;;;5.72;2.63;;;5.40;99.90;;;;;;5045308;28;20200;-72
2022/01/28 12:43:58;;;;;;;4.55;2.30;;;5.40;99.90;;;;;;5030424;28;20221;-72
2022/01/28 12:46:29;;;;;;;2.50;2.30;;;5.40;99.90;;;;;;5030743;28;20200;-72
2022/01/28 12:48:59;;;;;;;3.08;2.42;;;5.40;99.90;;;;;;5046934;28;20216;-71
2022/01/28 12:51:27;;;;;;;5.38;2.53;;;5.40;99.90;;;;;;5050992;28;20624;-71
2022/01/28 12:53:57;;;;;;;3.63;2.05;;;5.40;99.90;;;;;;5050057;28;20224;-71
2022/01/28 12:56:34;;;;;;;4.75;2.00;;;5.40;99.90;;;;;;5050697;28;20239;-72
2022/01/28 12:59:03;;;;;;;3.78;2.47;;;5.40;99.90;;;;;;5050074;28;20216;-71
2022/01/28 13:01:34;;;;;;;3.17;2.38;;;5.40;99.90;;;;;;5050561;28;20196;-71
2022/01/28 13:04:08;;;;;;;3.70;2.33;;;5.40;99.90;;;;;;5066950;28;20417;-73
2022/01/28 13:09:25;;;;;;;2.35;2.15;;;5.40;99.90;;;;;;5039392;28;20227;-72
2022/01/28 13:11:55;;;;;;;5.82;2.28;;;5.40;99.90;;;;;;5069555;28;20316;-71
2022/01/28 13:14:33;;;;;;;3.38;2.67;;;5.40;99.90;;;;;;5060282;28;20222;-72
2022/01/28 13:17:08;;;;;;;4.22;2.25;;;5.40;99.90;;;;;;5049848;28;20863;-72
2022/01/28 13:19:36;;;;;;;4.22;2.65;;;5.40;99.90;;;;;;5070514;28;20215;-72
2022/01/28 13:22:04;;;;;;;2.33;2.13;;;5.40;99.90;;;;;;5060658;28;20225;-71
2022/01/28 13:24:32;;;;;;;3.53;1.95;;;5.40;99.90;;;;;;5049661;28;20803;-72
2022/01/28 13:27:02;;;;;;;4.68;2.42;;;5.40;99.90;;;;;;5049864;28;20224;-72
2022/01/28 13:29:39;;;;;;;2.42;2.22;;;5.40;99.90;;;;;;5049968;28;20212;-71
2022/01/28 13:32:10;;;;;;;4.30;3.00;;;5.40;99.90;;;;;;5050682;28;20243;-71
2022/01/28 13:34:48;;;;;;;2.67;2.20;;;5.40;99.90;;;;;;5062061;28;20185;-71
2022/01/28 13:37:38;;;;;;;3.95;2.80;;;5.40;99.90;;;;;;5049306;28;20769;-73
2022/01/28 13:40:10;;;;;;;2.60;2.10;;;5.40;99.90;;;;;;5047614;28;20646;-72
2022/01/28 13:42:48;;;;;;;3.80;2.70;;;5.40;99.90;;;;;;5040829;28;20212;-71
2022/01/28 13:45:18;;;;;;;3.38;2.20;;;5.40;99.90;;;;;;5049816;28;20261;-71
2022/01/28 13:47:53;;;;;;;4.45;2.13;;;5.40;99.90;;;;;;5042091;28;20216;-71
2022/01/28 13:50:26;;;;;;;3.58;2.10;;;5.40;99.90;;;;;;5038178;28;20210;-72
2022/01/28 13:53:33;;;;;;;2.45;2.22;;;5.40;99.90;;;;;;5029505;28;20301;-71
2022/01/28 13:56:12;;;;;;;5.78;2.15;;;5.40;99.90;;;;;;5031905;28;20196;-71
2022/01/28 13:58:46;;;;;;;2.13;1.92;;;5.50;99.90;;;;;;5021451;28;20244;-73
2022/01/28 14:01:14;;;;;;;6.50;2.60;;;5.50;99.90;;;;;;5050082;28;20255;-73
2022/01/28 14:03:53;;;;;;;2.17;1.60;;;5.50;99.90;;;;;;5047180;28;20289;-72
2022/01/28 14:06:23;;;;;;;3.60;2.00;;;5.50;99.90;;;;;;5049394;28;20203;-72
2022/01/28 14:09:03;;;;;;;3.53;2.28;;;5.50;99.90;;;;;;5049244;28;20224;-72
2022/01/28 14:11:35;;;;;;;2.92;2.20;;;5.50;99.90;;;;;;5053808;28;20562;-72
2022/01/28 14:14:21;;;;;;;6.40;2.30;;;5.50;99.90;;;;;;5038088;28;20300;-72